sensor_id;sensor_type;location;lat;lon;timestamp;P1;durP1;ratioP1;P2;durP2;ratioP2
50651;SDS011;66928;52.086;5.240;2023-03-23T06:35:09;10.21;;;3.4;;
50651;SDS011;66928;52.086;5.240;2023-03-23T06:36:46;9.81;;;3.4;;
50651;SDS011;66928;52.086;5.240;2023-03-23T06:38:23;8.6;;;3.6;;
50651;SDS011;66928;52.086;5.240;2023-03-23T06:41:35;8.0;;;3.3;;
50651;SDS011;66928;52.086;5.240;2023-03-23T06:43:12;9.1;;;3.5;;
50651;SDS011;66928;52.086;5.240;2023-03-23T06:44:49;9.71;;;3.6;;
50651;SDS011;66928;52.086;5.240;2023-03-23T06:48:01;12.0;;;3.5;;
50651;SDS011;66928;52.086;5.240;2023-03-23T06:49:37;7.8;;;3.7;;
50651;SDS011;66928;52.086;5.240;2023-03-23T06:51:13;7.5;;;3.3;;
50651;SDS011;66928;52.086;5.240;2023-03-23T06:54:27;8.71;;;3.3;;
50651;SDS011;66928;52.086;5.240;2023-03-23T06:56:03;9.0;;;3.2;;
50651;SDS011;66928;52.086;5.240;2023-03-23T06:57:39;9.0;;;3.3;;
50651;SDS011;66928;52.086;5.240;2023-03-23T06:59:15;8.9;;;3.6;;
50651;SDS011;66928;52.086;5.240;2023-03-23T07:02:29;9.6;;;3.8;;
50651;SDS011;66928;52.086;5.240;2023-03-23T07:04:05;9.81;;;3.4;;
50651;SDS011;66928;52.086;5.240;2023-03-23T07:05:41;9.21;;;3.5;;
50651;SDS011;66928;52.086;5.240;2023-03-23T07:08:58;9.9;;;3.7;;
50651;SDS011;66928;52.086;5.240;2023-03-23T07:10:34;6.7;;;3.1;;
50651;SDS011;66928;52.086;5.240;2023-03-23T07:12:10;8.9;;;3.3;;
50651;SDS011;66928;52.086;5.240;2023-03-23T07:15:22;9.0;;;3.5;;
50651;SDS011;66928;52.086;5.240;2023-03-23T07:16:58;9.5;;;3.6;;
50651;SDS011;66928;52.086;5.240;2023-03-23T07:18:35;8.9;;;3.5;;
50651;SDS011;66928;52.086;5.240;2023-03-23T07:20:11;9.6;;;3.1;;
50651;SDS011;66928;52.086;5.240;2023-03-23T07:23:24;9.21;;;3.6;;
50651;SDS011;66928;52.086;5.240;2023-03-23T07:25:00;7.1;;;3.2;;
50651;SDS011;66928;52.086;5.240;2023-03-23T07:26:36;9.71;;;3.4;;
50651;SDS011;66928;52.086;5.240;2023-03-23T07:29:49;9.81;;;3.5;;
50651;SDS011;66928;52.086;5.240;2023-03-23T07:31:25;10.0;;;3.3;;
50651;SDS011;66928;52.086;5.240;2023-03-23T07:33:03;9.9;;;3.3;;
50651;SDS011;66928;52.086;5.240;2023-03-23T07:36:17;10.3;;;3.6;;
50651;SDS011;66928;52.086;5.240;2023-03-23T07:37:53;10.3;;;3.6;;
50651;SDS011;66928;52.086;5.240;2023-03-23T07:39:29;13.0;;;3.6;;
50651;SDS011;66928;52.086;5.240;2023-03-23T07:41:06;11.5;;;3.5;;
50651;SDS011;66928;52.086;5.240;2023-03-23T07:44:21;9.1;;;3.2;;
50651;SDS011;66928;52.086;5.240;2023-03-23T07:45:58;6.6;;;3.1;;
50651;SDS011;66928;52.086;5.240;2023-03-23T07:47:34;9.1;;;3.8;;
50651;SDS011;66928;52.086;5.240;2023-03-23T07:50:46;8.0;;;3.0;;
50651;SDS011;66928;52.086;5.240;2023-03-23T07:52:22;9.21;;;3.1;;
50651;SDS011;66928;52.086;5.240;2023-03-23T07:53:59;8.4;;;3.4;;
50651;SDS011;66928;52.086;5.240;2023-03-23T07:57:11;10.1;;;2.9;;
50651;SDS011;66928;52.086;5.240;2023-03-23T07:58:47;8.0;;;3.2;;
50651;SDS011;66928;52.086;5.240;2023-03-23T08:00:24;10.4;;;3.5;;
50651;SDS011;66928;52.086;5.240;2023-03-23T08:02:01;9.31;;;3.5;;
50651;SDS011;66928;52.086;5.240;2023-03-23T08:05:14;7.9;;;3.2;;
50651;SDS011;66928;52.086;5.240;2023-03-23T08:06:51;9.9;;;3.5;;
50651;SDS011;66928;52.086;5.240;2023-03-23T08:08:27;7.5;;;3.1;;
50651;SDS011;66928;52.086;5.240;2023-03-23T08:11:40;7.7;;;3.3;;
50651;SDS011;66928;52.086;5.240;2023-03-23T08:13:17;7.3;;;3.3;;
50651;SDS011;66928;52.086;5.240;2023-03-23T08:14:53;7.2;;;3.2;;
50651;SDS011;66928;52.086;5.240;2023-03-23T08:18:06;10.4;;;3.5;;
50651;SDS011;66928;52.086;5.240;2023-03-23T08:19:43;7.2;;;3.2;;
50651;SDS011;66928;52.086;5.240;2023-03-23T08:21:19;6.8;;;3.0;;
50651;SDS011;66928;52.086;5.240;2023-03-23T08:22:55;7.6;;;3.0;;
50651;SDS011;66928;52.086;5.240;2023-03-23T08:26:09;7.4;;;3.1;;
50651;SDS011;66928;52.086;5.240;2023-03-23T08:27:46;8.0;;;3.0;;
50651;SDS011;66928;52.086;5.240;2023-03-23T08:29:23;10.3;;;3.6;;
50651;SDS011;66928;52.086;5.240;2023-03-23T08:32:36;8.9;;;3.1;;
50651;SDS011;66928;52.086;5.240;2023-03-23T08:34:13;8.2;;;3.0;;
50651;SDS011;66928;52.086;5.240;2023-03-23T08:35:54;6.1;;;2.9;;
50651;SDS011;66928;52.086;5.240;2023-03-23T08:37:31;7.8;;;3.1;;
50651;SDS011;66928;52.086;5.240;2023-03-23T08:40:44;7.5;;;3.0;;
50651;SDS011;66928;52.086;5.240;2023-03-23T08:42:20;7.6;;;3.2;;
50651;SDS011;66928;52.086;5.240;2023-03-23T08:43:56;8.31;;;3.3;;
50651;SDS011;66928;52.086;5.240;2023-03-23T08:47:08;8.31;;;3.4;;
50651;SDS011;66928;52.086;5.240;2023-03-23T08:48:44;7.3;;;3.2;;
50651;SDS011;66928;52.086;5.240;2023-03-23T08:50:23;6.8;;;3.0;;
50651;SDS011;66928;52.086;5.240;2023-03-23T08:53:38;8.6;;;3.3;;
50651;SDS011;66928;52.086;5.240;2023-03-23T08:55:15;9.5;;;3.6;;
50651;SDS011;66928;52.086;5.240;2023-03-23T08:56:52;8.1;;;3.2;;
50651;SDS011;66928;52.086;5.240;2023-03-23T08:58:28;8.1;;;3.6;;
50651;SDS011;66928;52.086;5.240;2023-03-23T09:01:45;9.71;;;3.6;;
50651;SDS011;66928;52.086;5.240;2023-03-23T09:03:21;8.71;;;3.3;;
50651;SDS011;66928;52.086;5.240;2023-03-23T09:04:57;10.0;;;3.3;;
50651;SDS011;66928;52.086;5.240;2023-03-23T09:08:10;8.71;;;3.7;;
50651;SDS011;66928;52.086;5.240;2023-03-23T09:09:47;8.6;;;3.5;;
50651;SDS011;66928;52.086;5.240;2023-03-23T09:11:23;9.31;;;3.9;;
50651;SDS011;66928;52.086;5.240;2023-03-23T09:14:36;9.0;;;4.41;;
50651;SDS011;66928;52.086;5.240;2023-03-23T09:16:13;12.5;;;4.3;;
50651;SDS011;66928;52.086;5.240;2023-03-23T09:17:49;12.4;;;5.11;;
50651;SDS011;66928;52.086;5.240;2023-03-23T09:22:43;12.0;;;3.7;;
50651;SDS011;66928;52.086;5.240;2023-03-23T09:24:21;8.6;;;3.9;;
50651;SDS011;66928;52.086;5.240;2023-03-23T09:25:59;11.4;;;3.7;;
50651;SDS011;66928;52.086;5.240;2023-03-23T09:29:14;8.71;;;3.7;;
50651;SDS011;66928;52.086;5.240;2023-03-23T09:30:50;11.9;;;4.5;;
50651;SDS011;66928;52.086;5.240;2023-03-23T09:32:26;10.6;;;4.3;;
50651;SDS011;66928;52.086;5.240;2023-03-23T09:34:02;10.9;;;4.0;;
50651;SDS011;66928;52.086;5.240;2023-03-23T09:37:15;10.21;;;4.2;;
50651;SDS011;66928;52.086;5.240;2023-03-23T09:38:52;13.1;;;4.91;;
50651;SDS011;66928;52.086;5.240;2023-03-23T09:40:30;12.9;;;4.2;;
50651;SDS011;66928;52.086;5.240;2023-03-23T09:44:14;11.3;;;4.0;;
50651;SDS011;66928;52.086;5.240;2023-03-23T09:46:02;11.6;;;4.2;;
50651;SDS011;66928;52.086;5.240;2023-03-23T09:48:19;13.6;;;5.2;;
50651;SDS011;66928;52.086;5.240;2023-03-23T09:50:09;11.5;;;3.9;;
50651;SDS011;66928;52.086;5.240;2023-03-23T09:51:49;11.5;;;4.61;;
50651;SDS011;66928;52.086;5.240;2023-03-23T09:53:30;12.1;;;4.1;;
50651;SDS011;66928;52.086;5.240;2023-03-23T09:55:13;12.7;;;4.61;;
50651;SDS011;66928;52.086;5.240;2023-03-23T09:58:32;11.2;;;5.0;;
50651;SDS011;66928;52.086;5.240;2023-03-23T10:00:18;10.21;;;3.6;;
50651;SDS011;66928;52.086;5.240;2023-03-23T10:02:02;10.1;;;4.2;;
50651;SDS011;66928;52.086;5.240;2023-03-23T10:04:02;10.3;;;3.9;;
50651;SDS011;66928;52.086;5.240;2023-03-23T10:05:52;10.4;;;4.0;;
50651;SDS011;66928;52.086;5.240;2023-03-23T10:07:30;10.9;;;4.5;;
50651;SDS011;66928;52.086;5.240;2023-03-23T10:10:53;12.5;;;4.3;;
50651;SDS011;66928;52.086;5.240;2023-03-23T10:12:39;12.2;;;4.2;;
50651;SDS011;66928;52.086;5.240;2023-03-23T10:14:28;12.2;;;4.2;;
50651;SDS011;66928;52.086;5.240;2023-03-23T10:16:17;12.6;;;4.3;;
50651;SDS011;66928;52.086;5.240;2023-03-23T10:18:06;10.6;;;4.2;;
50651;SDS011;66928;52.086;5.240;2023-03-23T10:21:51;12.5;;;4.91;;
50651;SDS011;66928;52.086;5.240;2023-03-23T10:23:42;9.4;;;3.7;;
50651;SDS011;66928;52.086;5.240;2023-03-23T10:25:28;11.1;;;3.5;;
50651;SDS011;66928;52.086;5.240;2023-03-23T10:27:12;9.31;;;4.2;;
50651;SDS011;66928;52.086;5.240;2023-03-23T10:28:56;12.4;;;3.6;;
50651;SDS011;66928;52.086;5.240;2023-03-23T10:30:37;11.9;;;4.5;;
50651;SDS011;66928;52.086;5.240;2023-03-23T10:33:59;12.4;;;4.41;;
50651;SDS011;66928;52.086;5.240;2023-03-23T10:35:42;11.8;;;3.7;;
50651;SDS011;66928;52.086;5.240;2023-03-23T10:37:34;12.8;;;4.5;;
50651;SDS011;66928;52.086;5.240;2023-03-23T10:39:16;11.3;;;4.41;;
50651;SDS011;66928;52.086;5.240;2023-03-23T10:41:01;10.0;;;3.3;;
50651;SDS011;66928;52.086;5.240;2023-03-23T10:44:18;14.4;;;4.61;;
50651;SDS011;66928;52.086;5.240;2023-03-23T10:46:02;11.4;;;4.41;;
50651;SDS011;66928;52.086;5.240;2023-03-23T10:47:49;15.6;;;4.7;;
50651;SDS011;66928;52.086;5.240;2023-03-23T10:49:33;13.9;;;5.8;;
50651;SDS011;66928;52.086;5.240;2023-03-23T10:52:54;14.1;;;4.8;;
50651;SDS011;66928;52.086;5.240;2023-03-23T10:54:35;12.6;;;4.2;;
50651;SDS011;66928;52.086;5.240;2023-03-23T10:56:23;12.7;;;4.7;;
50651;SDS011;66928;52.086;5.240;2023-03-23T10:58:02;10.6;;;4.3;;
50651;SDS011;66928;52.086;5.240;2023-03-23T11:01:18;13.3;;;3.8;;
50651;SDS011;66928;52.086;5.240;2023-03-23T11:02:58;10.6;;;3.7;;
50651;SDS011;66928;52.086;5.240;2023-03-23T11:04:37;11.0;;;3.9;;
50651;SDS011;66928;52.086;5.240;2023-03-23T11:06:18;12.6;;;4.2;;
50651;SDS011;66928;52.086;5.240;2023-03-23T11:09:36;11.9;;;4.0;;
50651;SDS011;66928;52.086;5.240;2023-03-23T11:11:15;11.9;;;4.0;;
50651;SDS011;66928;52.086;5.240;2023-03-23T11:12:56;12.8;;;4.7;;
50651;SDS011;66928;52.086;5.240;2023-03-23T11:14:33;12.8;;;4.41;;
50651;SDS011;66928;52.086;5.240;2023-03-23T11:18:01;13.9;;;4.7;;
50651;SDS011;66928;52.086;5.240;2023-03-23T11:19:39;13.6;;;4.41;;
50651;SDS011;66928;52.086;5.240;2023-03-23T11:21:15;12.0;;;4.0;;
50651;SDS011;66928;52.086;5.240;2023-03-23T11:22:52;13.7;;;5.11;;
50651;SDS011;66928;52.086;5.240;2023-03-23T11:26:10;13.3;;;4.5;;
50651;SDS011;66928;52.086;5.240;2023-03-23T11:27:50;10.7;;;4.41;;
50651;SDS011;66928;52.086;5.240;2023-03-23T11:29:26;10.4;;;4.3;;
50651;SDS011;66928;52.086;5.240;2023-03-23T11:32:43;11.9;;;4.3;;
50651;SDS011;66928;52.086;5.240;2023-03-23T11:34:21;15.2;;;4.8;;
50651;SDS011;66928;52.086;5.240;2023-03-23T11:36:00;12.5;;;5.0;;
50651;SDS011;66928;52.086;5.240;2023-03-23T11:37:41;10.0;;;4.41;;
50651;SDS011;66928;52.086;5.240;2023-03-23T11:40:59;12.1;;;3.8;;
50651;SDS011;66928;52.086;5.240;2023-03-23T11:42:37;11.8;;;3.8;;
50651;SDS011;66928;52.086;5.240;2023-03-23T11:44:21;10.4;;;3.8;;
50651;SDS011;66928;52.086;5.240;2023-03-23T11:46:02;9.71;;;3.8;;
50651;SDS011;66928;52.086;5.240;2023-03-23T11:49:38;10.21;;;4.0;;
50651;SDS011;66928;52.086;5.240;2023-03-23T11:51:24;11.2;;;4.0;;
50651;SDS011;66928;52.086;5.240;2023-03-23T11:53:10;10.21;;;3.4;;
50651;SDS011;66928;52.086;5.240;2023-03-23T11:54:56;12.2;;;4.2;;
50651;SDS011;66928;52.086;5.240;2023-03-23T11:56:41;11.0;;;3.9;;
50651;SDS011;66928;52.086;5.240;2023-03-23T11:58:19;10.8;;;3.8;;
50651;SDS011;66928;52.086;5.240;2023-03-23T12:01:42;14.6;;;3.9;;
50651;SDS011;66928;52.086;5.240;2023-03-23T12:03:36;11.3;;;4.0;;
50651;SDS011;66928;52.086;5.240;2023-03-23T12:05:34;10.9;;;4.2;;
50651;SDS011;66928;52.086;5.240;2023-03-23T12:07:25;9.1;;;3.6;;
50651;SDS011;66928;52.086;5.240;2023-03-23T12:09:21;10.3;;;3.9;;
50651;SDS011;66928;52.086;5.240;2023-03-23T12:11:15;11.2;;;3.7;;
50651;SDS011;66928;52.086;5.240;2023-03-23T12:13:02;10.6;;;3.8;;
50651;SDS011;66928;52.086;5.240;2023-03-23T12:16:41;12.2;;;3.7;;
50651;SDS011;66928;52.086;5.240;2023-03-23T12:18:37;12.0;;;3.5;;
50651;SDS011;66928;52.086;5.240;2023-03-23T12:20:31;12.8;;;3.8;;
50651;SDS011;66928;52.086;5.240;2023-03-23T12:22:19;11.0;;;3.7;;
50651;SDS011;66928;52.086;5.240;2023-03-23T12:24:21;9.71;;;3.5;;
50651;SDS011;66928;52.086;5.240;2023-03-23T12:26:15;9.31;;;3.2;;
50651;SDS011;66928;52.086;5.240;2023-03-23T12:27:58;9.0;;;3.5;;
50651;SDS011;66928;52.086;5.240;2023-03-23T12:29:48;9.1;;;3.3;;
50651;SDS011;66928;52.086;5.240;2023-03-23T12:33:27;9.6;;;3.4;;
50651;SDS011;66928;52.086;5.240;2023-03-23T12:35:22;8.5;;;3.3;;
50651;SDS011;66928;52.086;5.240;2023-03-23T12:37:19;12.2;;;3.4;;
50651;SDS011;66928;52.086;5.240;2023-03-23T12:39:25;10.3;;;3.6;;
50651;SDS011;66928;52.086;5.240;2023-03-23T12:41:20;8.4;;;3.5;;
50651;SDS011;66928;52.086;5.240;2023-03-23T12:43:04;11.6;;;4.2;;
50651;SDS011;66928;52.086;5.240;2023-03-23T12:44:57;8.71;;;3.2;;
50651;SDS011;66928;52.086;5.240;2023-03-23T12:46:51;9.4;;;3.0;;
50651;SDS011;66928;52.086;5.240;2023-03-23T12:49:29;9.0;;;3.0;;
50651;SDS011;66928;52.086;5.240;2023-03-23T12:51:13;8.6;;;3.0;;
50651;SDS011;66928;52.086;5.240;2023-03-23T12:52:57;8.71;;;3.5;;
50651;SDS011;66928;52.086;5.240;2023-03-23T12:56:23;6.7;;;3.2;;
50651;SDS011;66928;52.086;5.240;2023-03-23T12:58:06;8.9;;;2.9;;
50651;SDS011;66928;52.086;5.240;2023-03-23T12:59:47;8.2;;;3.3;;
50651;SDS011;66928;52.086;5.240;2023-03-23T13:01:40;7.4;;;3.1;;
50651;SDS011;66928;52.086;5.240;2023-03-23T13:03:22;7.6;;;2.8;;
50651;SDS011;66928;52.086;5.240;2023-03-23T13:07:02;7.3;;;2.7;;
50651;SDS011;66928;52.086;5.240;2023-03-23T13:08:45;8.81;;;3.1;;
50651;SDS011;66928;52.086;5.240;2023-03-23T13:10:29;7.2;;;3.2;;
50651;SDS011;66928;52.086;5.240;2023-03-23T13:12:10;7.8;;;2.8;;
50651;SDS011;66928;52.086;5.240;2023-03-23T13:13:48;7.3;;;2.9;;
50651;SDS011;66928;52.086;5.240;2023-03-23T13:17:19;8.1;;;2.7;;
50651;SDS011;66928;52.086;5.240;2023-03-23T13:19:10;6.8;;;2.6;;
50651;SDS011;66928;52.086;5.240;2023-03-23T13:21:07;10.0;;;2.9;;
50651;SDS011;66928;52.086;5.240;2023-03-23T13:22:52;7.0;;;2.8;;
50651;SDS011;66928;52.086;5.240;2023-03-23T13:24:35;8.71;;;3.0;;
50651;SDS011;66928;52.086;5.240;2023-03-23T13:26:25;9.1;;;3.0;;
50651;SDS011;66928;52.086;5.240;2023-03-23T13:29:43;6.6;;;2.8;;
50651;SDS011;66928;52.086;5.240;2023-03-23T13:31:21;7.6;;;3.3;;
50651;SDS011;66928;52.086;5.240;2023-03-23T13:33:01;7.3;;;3.0;;
50651;SDS011;66928;52.086;5.240;2023-03-23T13:34:39;7.1;;;2.8;;
50651;SDS011;66928;52.086;5.240;2023-03-23T13:38:17;7.5;;;3.0;;
50651;SDS011;66928;52.086;5.240;2023-03-23T13:39:56;7.4;;;2.8;;
50651;SDS011;66928;52.086;5.240;2023-03-23T13:41:58;8.4;;;3.0;;
50651;SDS011;66928;52.086;5.240;2023-03-23T13:43:40;8.31;;;2.7;;
50651;SDS011;66928;52.086;5.240;2023-03-23T13:45:20;6.8;;;2.5;;
50651;SDS011;66928;52.086;5.240;2023-03-23T13:48:44;8.5;;;3.2;;
50651;SDS011;66928;52.086;5.240;2023-03-23T13:50:26;7.7;;;3.1;;
50651;SDS011;66928;52.086;5.240;2023-03-23T13:52:14;7.6;;;3.1;;
50651;SDS011;66928;52.086;5.240;2023-03-23T13:54:03;8.0;;;2.8;;
50651;SDS011;66928;52.086;5.240;2023-03-23T13:55:46;7.8;;;2.7;;
50651;SDS011;66928;52.086;5.240;2023-03-23T13:59:29;8.2;;;2.9;;
50651;SDS011;66928;52.086;5.240;2023-03-23T14:01:11;5.8;;;3.0;;
50651;SDS011;66928;52.086;5.240;2023-03-23T14:02:50;6.8;;;2.9;;
50651;SDS011;66928;52.086;5.240;2023-03-23T14:04:30;9.71;;;3.4;;
50651;SDS011;66928;52.086;5.240;2023-03-23T14:06:10;9.71;;;3.5;;
50651;SDS011;66928;52.086;5.240;2023-03-23T14:09:32;6.5;;;3.0;;
50651;SDS011;66928;52.086;5.240;2023-03-23T14:11:14;8.4;;;3.8;;
50651;SDS011;66928;52.086;5.240;2023-03-23T14:12:54;8.6;;;3.0;;
50651;SDS011;66928;52.086;5.240;2023-03-23T14:14:31;6.7;;;2.8;;
50651;SDS011;66928;52.086;5.240;2023-03-23T14:17:52;6.5;;;3.1;;
50651;SDS011;66928;52.086;5.240;2023-03-23T14:19:28;7.2;;;2.9;;
50651;SDS011;66928;52.086;5.240;2023-03-23T14:21:06;8.71;;;3.3;;
50651;SDS011;66928;52.086;5.240;2023-03-23T14:22:53;9.21;;;3.1;;
50651;SDS011;66928;52.086;5.240;2023-03-23T14:26:10;8.81;;;3.1;;
50651;SDS011;66928;52.086;5.240;2023-03-23T14:27:49;6.4;;;2.9;;
50651;SDS011;66928;52.086;5.240;2023-03-23T14:29:27;10.1;;;3.5;;
50651;SDS011;66928;52.086;5.240;2023-03-23T14:31:03;6.6;;;3.2;;
50651;SDS011;66928;52.086;5.240;2023-03-23T14:34:18;7.2;;;3.1;;
50651;SDS011;66928;52.086;5.240;2023-03-23T14:35:57;8.81;;;3.6;;
50651;SDS011;66928;52.086;5.240;2023-03-23T14:37:34;10.1;;;3.2;;
50651;SDS011;66928;52.086;5.240;2023-03-23T14:40:58;6.9;;;3.2;;
50651;SDS011;66928;52.086;5.240;2023-03-23T14:42:36;8.71;;;3.3;;
50651;SDS011;66928;52.086;5.240;2023-03-23T14:44:13;9.31;;;3.3;;
50651;SDS011;66928;52.086;5.240;2023-03-23T14:45:54;8.81;;;3.5;;
50651;SDS011;66928;52.086;5.240;2023-03-23T14:49:13;9.21;;;3.0;;
50651;SDS011;66928;52.086;5.240;2023-03-23T14:50:56;9.9;;;3.6;;
50651;SDS011;66928;52.086;5.240;2023-03-23T14:52:33;10.0;;;3.3;;
50651;SDS011;66928;52.086;5.240;2023-03-23T14:54:13;8.9;;;3.3;;
50651;SDS011;66928;52.086;5.240;2023-03-23T14:57:29;8.6;;;3.2;;
50651;SDS011;66928;52.086;5.240;2023-03-23T14:59:06;9.4;;;3.2;;
50651;SDS011;66928;52.086;5.240;2023-03-23T15:00:43;9.4;;;3.4;;
50651;SDS011;66928;52.086;5.240;2023-03-23T15:02:28;10.9;;;3.5;;
50651;SDS011;66928;52.086;5.240;2023-03-23T15:05:50;7.7;;;3.3;;
50651;SDS011;66928;52.086;5.240;2023-03-23T15:07:32;7.6;;;3.2;;
50651;SDS011;66928;52.086;5.240;2023-03-23T15:09:12;9.5;;;3.2;;
50651;SDS011;66928;52.086;5.240;2023-03-23T15:10:52;10.4;;;3.1;;
50651;SDS011;66928;52.086;5.240;2023-03-23T15:14:08;7.7;;;3.2;;
50651;SDS011;66928;52.086;5.240;2023-03-23T15:15:52;8.81;;;3.1;;
50651;SDS011;66928;52.086;5.240;2023-03-23T15:17:38;8.1;;;3.3;;
50651;SDS011;66928;52.086;5.240;2023-03-23T15:19:16;9.6;;;3.3;;
50651;SDS011;66928;52.086;5.240;2023-03-23T15:22:31;6.9;;;2.9;;
50651;SDS011;66928;52.086;5.240;2023-03-23T15:24:18;9.31;;;3.3;;
50651;SDS011;66928;52.086;5.240;2023-03-23T15:26:03;8.4;;;3.1;;
50651;SDS011;66928;52.086;5.240;2023-03-23T15:27:42;8.9;;;3.2;;
50651;SDS011;66928;52.086;5.240;2023-03-23T15:31:01;9.4;;;3.3;;
50651;SDS011;66928;52.086;5.240;2023-03-23T15:32:41;11.8;;;3.4;;
50651;SDS011;66928;52.086;5.240;2023-03-23T15:34:21;9.4;;;3.3;;
50651;SDS011;66928;52.086;5.240;2023-03-23T15:36:06;9.0;;;3.6;;
50651;SDS011;66928;52.086;5.240;2023-03-23T15:39:25;11.3;;;3.3;;
50651;SDS011;66928;52.086;5.240;2023-03-23T15:41:03;9.21;;;3.2;;
50651;SDS011;66928;52.086;5.240;2023-03-23T15:42:41;9.5;;;3.6;;
50651;SDS011;66928;52.086;5.240;2023-03-23T15:44:22;9.1;;;3.3;;
50651;SDS011;66928;52.086;5.240;2023-03-23T15:48:04;10.4;;;3.7;;
50651;SDS011;66928;52.086;5.240;2023-03-23T15:49:58;7.8;;;3.3;;
50651;SDS011;66928;52.086;5.240;2023-03-23T15:51:38;9.6;;;3.4;;
50651;SDS011;66928;52.086;5.240;2023-03-23T15:53:18;10.0;;;3.5;;
50651;SDS011;66928;52.086;5.240;2023-03-23T15:55:16;12.0;;;3.5;;
50651;SDS011;66928;52.086;5.240;2023-03-23T15:56:56;11.4;;;3.9;;
50651;SDS011;66928;52.086;5.240;2023-03-23T16:00:11;11.1;;;3.6;;
50651;SDS011;66928;52.086;5.240;2023-03-23T16:01:47;10.4;;;3.2;;
50651;SDS011;66928;52.086;5.240;2023-03-23T16:03:24;9.1;;;3.4;;
50651;SDS011;66928;52.086;5.240;2023-03-23T16:06:40;9.81;;;3.7;;
50651;SDS011;66928;52.086;5.240;2023-03-23T16:08:17;11.5;;;3.7;;
50651;SDS011;66928;52.086;5.240;2023-03-23T16:09:53;11.6;;;3.7;;
50651;SDS011;66928;52.086;5.240;2023-03-23T16:11:30;9.9;;;3.7;;
50651;SDS011;66928;52.086;5.240;2023-03-23T16:14:43;10.0;;;4.0;;
50651;SDS011;66928;52.086;5.240;2023-03-23T16:16:21;11.7;;;4.3;;
50651;SDS011;66928;52.086;5.240;2023-03-23T16:18:03;9.9;;;3.6;;
50651;SDS011;66928;52.086;5.240;2023-03-23T16:21:16;9.5;;;3.9;;
50651;SDS011;66928;52.086;5.240;2023-03-23T16:22:52;8.0;;;3.8;;
50651;SDS011;66928;52.086;5.240;2023-03-23T16:24:28;10.5;;;3.9;;
50651;SDS011;66928;52.086;5.240;2023-03-23T16:26:04;9.21;;;3.6;;
50651;SDS011;66928;52.086;5.240;2023-03-23T16:29:19;9.1;;;3.5;;
50651;SDS011;66928;52.086;5.240;2023-03-23T16:30:55;9.81;;;4.0;;
50651;SDS011;66928;52.086;5.240;2023-03-23T16:32:31;10.9;;;3.7;;
50651;SDS011;66928;52.086;5.240;2023-03-23T16:35:43;11.3;;;4.1;;
50651;SDS011;66928;52.086;5.240;2023-03-23T16:37:20;10.21;;;3.7;;
50651;SDS011;66928;52.086;5.240;2023-03-23T16:38:57;10.9;;;3.8;;
50651;SDS011;66928;52.086;5.240;2023-03-23T16:42:09;12.2;;;4.1;;
50651;SDS011;66928;52.086;5.240;2023-03-23T16:43:45;11.4;;;4.5;;
50651;SDS011;66928;52.086;5.240;2023-03-23T16:45:22;10.9;;;4.5;;
50651;SDS011;66928;52.086;5.240;2023-03-23T16:48:34;9.31;;;4.1;;
50651;SDS011;66928;52.086;5.240;2023-03-23T16:50:13;10.7;;;3.8;;
50651;SDS011;66928;52.086;5.240;2023-03-23T16:51:52;10.4;;;3.9;;
50651;SDS011;66928;52.086;5.240;2023-03-23T16:53:28;9.1;;;3.9;;
50651;SDS011;66928;52.086;5.240;2023-03-23T16:56:42;10.7;;;4.2;;
50651;SDS011;66928;52.086;5.240;2023-03-23T16:58:19;9.81;;;3.9;;
50651;SDS011;66928;52.086;5.240;2023-03-23T16:59:56;11.8;;;4.2;;
50651;SDS011;66928;52.086;5.240;2023-03-23T17:03:08;10.5;;;4.1;;
50651;SDS011;66928;52.086;5.240;2023-03-23T17:04:44;10.21;;;4.3;;
50651;SDS011;66928;52.086;5.240;2023-03-23T17:06:21;10.8;;;4.0;;
50651;SDS011;66928;52.086;5.240;2023-03-23T17:07:57;11.2;;;4.1;;
50651;SDS011;66928;52.086;5.240;2023-03-23T17:11:09;10.7;;;4.2;;
50651;SDS011;66928;52.086;5.240;2023-03-23T17:12:46;10.21;;;4.5;;
50651;SDS011;66928;52.086;5.240;2023-03-23T17:14:22;11.9;;;4.8;;
50651;SDS011;66928;52.086;5.240;2023-03-23T17:17:34;11.3;;;4.3;;
50651;SDS011;66928;52.086;5.240;2023-03-23T17:19:10;12.0;;;4.2;;
50651;SDS011;66928;52.086;5.240;2023-03-23T17:20:46;12.9;;;4.7;;
50651;SDS011;66928;52.086;5.240;2023-03-23T17:24:01;11.1;;;5.0;;
50651;SDS011;66928;52.086;5.240;2023-03-23T17:25:37;11.0;;;4.41;;
50651;SDS011;66928;52.086;5.240;2023-03-23T17:27:13;8.81;;;3.9;;
50651;SDS011;66928;52.086;5.240;2023-03-23T17:28:51;10.0;;;4.0;;
50651;SDS011;66928;52.086;5.240;2023-03-23T17:32:03;10.8;;;4.41;;
50651;SDS011;66928;52.086;5.240;2023-03-23T17:33:40;10.3;;;4.5;;
50651;SDS011;66928;52.086;5.240;2023-03-23T17:35:16;11.1;;;5.3;;
50651;SDS011;66928;52.086;5.240;2023-03-23T17:38:29;11.1;;;5.2;;
50651;SDS011;66928;52.086;5.240;2023-03-23T17:40:06;9.0;;;4.1;;
50651;SDS011;66928;52.086;5.240;2023-03-23T17:41:43;9.71;;;5.11;;
50651;SDS011;66928;52.086;5.240;2023-03-23T17:44:55;9.6;;;4.5;;
50651;SDS011;66928;52.086;5.240;2023-03-23T17:46:31;10.9;;;3.8;;
50651;SDS011;66928;52.086;5.240;2023-03-23T17:48:07;9.4;;;3.7;;
50651;SDS011;66928;52.086;5.240;2023-03-23T17:49:44;8.71;;;3.3;;
50651;SDS011;66928;52.086;5.240;2023-03-23T17:52:58;10.0;;;6.0;;
50651;SDS011;66928;52.086;5.240;2023-03-23T17:54:34;10.8;;;6.7;;
50651;SDS011;66928;52.086;5.240;2023-03-23T17:56:10;8.71;;;4.41;;
50651;SDS011;66928;52.086;5.240;2023-03-23T17:59:22;9.5;;;4.0;;
50651;SDS011;66928;52.086;5.240;2023-03-23T18:01:00;8.4;;;3.6;;
50651;SDS011;66928;52.086;5.240;2023-03-23T18:02:36;8.2;;;4.0;;
50651;SDS011;66928;52.086;5.240;2023-03-23T18:05:49;11.3;;;5.3;;
50651;SDS011;66928;52.086;5.240;2023-03-23T18:07:25;8.81;;;4.1;;
50651;SDS011;66928;52.086;5.240;2023-03-23T18:09:02;9.81;;;4.0;;
50651;SDS011;66928;52.086;5.240;2023-03-23T18:12:15;10.4;;;6.3;;
50651;SDS011;66928;52.086;5.240;2023-03-23T18:13:51;12.2;;;5.6;;
50651;SDS011;66928;52.086;5.240;2023-03-23T18:15:27;8.5;;;4.0;;
50651;SDS011;66928;52.086;5.240;2023-03-23T18:17:04;10.3;;;4.0;;
50651;SDS011;66928;52.086;5.240;2023-03-23T18:20:17;10.0;;;4.3;;
50651;SDS011;66928;52.086;5.240;2023-03-23T18:21:54;9.81;;;4.5;;
50651;SDS011;66928;52.086;5.240;2023-03-23T18:23:30;9.6;;;4.61;;
50651;SDS011;66928;52.086;5.240;2023-03-23T18:26:43;12.2;;;4.41;;
50651;SDS011;66928;52.086;5.240;2023-03-23T18:28:19;10.6;;;4.91;;
50651;SDS011;66928;52.086;5.240;2023-03-23T18:29:57;10.5;;;4.41;;
50651;SDS011;66928;52.086;5.240;2023-03-23T18:33:10;9.71;;;4.3;;
50651;SDS011;66928;52.086;5.240;2023-03-23T18:34:46;7.2;;;3.7;;
50651;SDS011;66928;52.086;5.240;2023-03-23T18:36:23;9.1;;;3.6;;
50651;SDS011;66928;52.086;5.240;2023-03-23T18:38:02;8.5;;;3.4;;
50651;SDS011;66928;52.086;5.240;2023-03-23T18:41:15;7.5;;;4.0;;
50651;SDS011;66928;52.086;5.240;2023-03-23T18:42:52;9.71;;;4.3;;
50651;SDS011;66928;52.086;5.240;2023-03-23T18:44:29;10.5;;;4.41;;
50651;SDS011;66928;52.086;5.240;2023-03-23T18:47:42;10.1;;;4.1;;
50651;SDS011;66928;52.086;5.240;2023-03-23T18:49:18;10.8;;;4.61;;
50651;SDS011;66928;52.086;5.240;2023-03-23T18:50:55;9.5;;;3.8;;
50651;SDS011;66928;52.086;5.240;2023-03-23T18:52:33;9.81;;;4.41;;
50651;SDS011;66928;52.086;5.240;2023-03-23T18:55:46;12.6;;;6.0;;
50651;SDS011;66928;52.086;5.240;2023-03-23T18:57:23;11.1;;;5.2;;
50651;SDS011;66928;52.086;5.240;2023-03-23T18:59:00;11.0;;;4.41;;
50651;SDS011;66928;52.086;5.240;2023-03-23T19:02:14;11.7;;;5.0;;
50651;SDS011;66928;52.086;5.240;2023-03-23T19:03:51;12.1;;;4.7;;
50651;SDS011;66928;52.086;5.240;2023-03-23T19:05:27;10.1;;;4.7;;
50651;SDS011;66928;52.086;5.240;2023-03-23T19:08:41;11.0;;;4.7;;
50651;SDS011;66928;52.086;5.240;2023-03-23T19:10:17;10.3;;;4.91;;
50651;SDS011;66928;52.086;5.240;2023-03-23T19:11:53;12.2;;;4.8;;
50651;SDS011;66928;52.086;5.240;2023-03-23T19:13:29;10.8;;;4.5;;
50651;SDS011;66928;52.086;5.240;2023-03-23T19:16:43;9.71;;;4.1;;
50651;SDS011;66928;52.086;5.240;2023-03-23T19:18:20;10.3;;;4.61;;
50651;SDS011;66928;52.086;5.240;2023-03-23T19:19:57;9.4;;;4.3;;
50651;SDS011;66928;52.086;5.240;2023-03-23T19:23:12;11.5;;;4.8;;
50651;SDS011;66928;52.086;5.240;2023-03-23T19:24:48;11.5;;;4.8;;
50651;SDS011;66928;52.086;5.240;2023-03-23T19:26:26;9.6;;;4.61;;